Time;durP1;ratioP1;P1;durP2;ratioP2;P2;SDS_P1;SDS_P2;PMS_P1;PMS_P2;Temp;Humidity;BMP_temperature;BMP_pressure;BME280_temperature;BME280_humidity;BME280_pressure;Samples;Min_cycle;Max_cycle;Signal;HPM_P1;HPM_P2
2023/08/08 00:01:30;;;;;;;2.10;1.40;;;;;;;16.75;65.42;99279.97;7283692;39;21225;31
2023/08/08 00:06:47;;;;;;;1.70;1.30;;;;;;;16.80;65.89;99282.94;7232902;40;20337;31
2023/08/08 00:12:05;;;;;;;2.20;1.27;;;;;;;16.86;66.07;99284.81;7247480;40;20393;31
2023/08/08 00:17:38;;;;;;;3.45;1.40;;;;;;;16.84;65.72;99269.75;7216328;40;20247;31
2023/08/08 00:22:55;;;;;;;2.30;1.50;;;;;;;16.87;66.11;99270.16;7244562;40;20491;31
2023/08/08 00:28:12;;;;;;;3.03;1.43;;;;;;;16.79;66.27;99262.19;7229619;40;20353;31
2023/08/08 00:33:45;;;;;;;3.23;1.80;;;;;;;16.74;67.07;99264.69;7287746;39;20232;31
2023/08/08 00:39:03;;;;;;;1.93;1.50;;;;;;;16.69;67.29;99267.19;7216977;40;20248;31
2023/08/08 00:44:19;;;;;;;1.90;1.50;;;;;;;16.66;66.99;99259.44;7244605;40;20277;31
2023/08/08 00:49:52;;;;;;;2.60;1.60;;;;;;;16.59;67.11;99262.09;7273502;40;20399;31
2023/08/08 00:55:24;;;;;;;2.63;1.60;;;;;;;16.59;67.41;99262.09;7276140;40;20264;31
2023/08/08 01:00:59;;;;;;;3.15;1.50;;;;;;;16.51;67.44;99261.41;7216247;40;20266;31
2023/08/08 01:11:33;;;;;;;2.20;1.40;;;;;;;16.46;67.58;99239.41;7232264;40;20276;31
2023/08/08 01:22:12;;;;;;;2.75;1.62;;;;;;;16.42;68.54;99238.97;7177108;40;20283;31
2023/08/08 01:32:52;;;;;;;4.90;1.60;;;;;;;16.30;68.88;99240.63;7265440;39;20316;31
2023/08/08 01:43:28;;;;;;;4.40;1.60;;;;;;;16.33;68.42;99244.78;7307761;39;21202;31
2023/08/08 01:54:04;;;;;;;3.17;1.80;;;;;;;16.35;68.37;99231.84;7317019;39;20512;31
2023/08/08 01:59:35;;;;;;;3.20;1.90;;;;;;;16.33;68.16;99237.47;7273414;40;20238;31
2023/08/08 02:04:53;;;;;;;4.80;1.73;;;;;;;16.27;68.83;99224.72;7264251;39;20245;31
2023/08/08 02:10:25;;;;;;;4.70;1.70;;;;;;;16.22;69.69;99230.75;7255727;40;20245;31
2023/08/08 02:15:57;;;;;;;2.47;1.83;;;;;;;16.21;69.92;99228.22;7212080;40;20265;31
2023/08/08 02:21:29;;;;;;;3.60;1.70;;;;;;;16.18;69.08;99226.75;7213708;40;20349;31
2023/08/08 02:27:03;;;;;;;3.33;1.60;;;;;;;16.15;69.39;99220.84;7184987;40;20399;31
2023/08/08 02:32:20;;;;;;;4.15;1.90;;;;;;;16.11;69.77;99230.47;7165213;40;20658;31
2023/08/08 02:42:55;;;;;;;3.14;1.78;;;;;;;15.95;70.85;99231.66;7233640;40;20382;31
2023/08/08 02:48:13;;;;;;;2.00;1.43;;;;;;;15.90;70.45;99239.56;7249541;40;20257;31
2023/08/08 02:53:30;;;;;;;3.13;2.00;;;;;;;15.84;70.20;99237.63;7246394;40;20339;31
2023/08/08 02:59:02;;;;;;;3.63;1.90;;;;;;;15.80;70.91;99240.97;7274791;40;20264;31
2023/08/08 03:04:38;;;;;;;4.00;1.90;;;;;;;15.65;71.35;99238.34;7253822;40;20354;31
2023/08/08 03:09:55;;;;;;;2.77;1.70;;;;;;;15.66;70.70;99234.59;7213032;40;20295;31
2023/08/08 03:15:26;;;;;;;2.40;1.70;;;;;;;15.62;71.18;99234.13;7257295;40;20265;31
2023/08/08 03:21:01;;;;;;;4.93;1.70;;;;;;;15.66;71.88;99224.56;7175146;40;20399;31
2023/08/08 03:26:33;;;;;;;2.87;1.80;;;;;;;15.64;71.33;99225.78;7186489;40;20310;31
2023/08/08 03:32:06;;;;;;;5.47;1.80;;;;;;;15.61;71.57;99223.47;7165962;40;20304;31
2023/08/08 03:37:23;;;;;;;2.80;1.73;;;;;;;15.60;71.95;99216.34;7164703;40;20245;31
2023/08/08 03:42:43;;;;;;;2.90;1.73;;;;;;;15.55;71.44;99221.53;7196862;40;20247;31
2023/08/08 03:48:16;;;;;;;2.73;1.70;;;;;;;15.46;71.91;99211.81;7192118;40;20265;31
2023/08/08 03:53:48;;;;;;;3.30;1.73;;;;;;;15.46;71.95;99222.69;7022120;40;20236;31
2023/08/08 03:59:05;;;;;;;2.50;1.90;;;;;;;15.47;72.80;99225.22;7208263;40;20345;31
2023/08/08 04:04:38;;;;;;;3.03;1.90;;;;;;;15.43;72.66;99223.09;7220867;40;20334;31
2023/08/08 04:09:55;;;;;;;4.15;1.90;;;;;;;15.37;72.89;99229.31;7192570;40;20262;31
2023/08/08 04:15:27;;;;;;;2.30;1.80;;;;;;;15.35;73.30;99234.94;7163543;40;20262;31
2023/08/08 04:20:58;;;;;;;3.03;1.90;;;;;;;15.36;73.14;99244.75;7178524;40;20270;31
2023/08/08 04:26:30;;;;;;;8.60;2.03;;;;;;;15.40;73.54;99240.59;7174821;40;20258;31
2023/08/08 04:31:47;;;;;;;2.33;1.63;;;;;;;15.45;73.61;99246.28;7134214;40;20263;31
2023/08/08 04:37:18;;;;;;;3.43;1.67;;;;;;;15.34;74.19;99234.09;7191845;40;20290;31
2023/08/08 04:42:35;;;;;;;3.20;1.80;;;;;;;15.29;73.64;99236.56;7244777;40;20253;31
2023/08/08 04:48:10;;;;;;;1.90;1.70;;;;;;;15.20;74.51;99235.03;7267461;39;20276;31
2023/08/08 04:53:46;;;;;;;2.70;1.63;;;;;;;15.14;75.27;99238.50;7263461;40;20327;31
2023/08/08 04:59:03;;;;;;;3.25;1.75;;;;;;;15.21;74.38;99238.59;7214026;40;20242;31
2023/08/08 05:04:20;;;;;;;2.83;1.70;;;;;;;15.27;74.45;99243.22;7190350;40;20242;31
2023/08/08 05:09:53;;;;;;;3.63;1.70;;;;;;;15.29;74.15;99242.00;7217076;40;20276;31
2023/08/08 05:15:28;;;;;;;4.73;1.90;;;;;;;15.29;74.36;99238.44;7182075;40;20259;31
2023/08/08 05:21:03;;;;;;;3.87;1.80;;;;;;;15.33;75.03;99246.00;7185518;40;20263;31
2023/08/08 05:26:39;;;;;;;2.27;1.70;;;;;;;15.38;75.26;99248.13;7153555;40;21921;31
2023/08/08 05:32:11;;;;;;;2.63;1.80;;;;;;;15.39;74.97;99238.09;7124998;40;20247;31
2023/08/08 05:37:43;;;;;;;2.90;1.95;;;;;;;15.45;74.54;99245.44;7159965;40;20274;31
2023/08/08 05:43:18;;;;;;;3.63;1.90;;;;;;;15.58;74.81;99234.72;7204242;40;20390;31
2023/08/08 05:48:34;;;;;;;4.95;2.00;;;;;;;15.69;74.24;99231.47;7150193;40;20316;31
2023/08/08 05:59:12;;;;;;;2.78;2.00;;;;;;;15.88;73.81;99235.38;7237620;40;20269;31
2023/08/08 06:09:51;;;;;;;3.28;1.77;;;;;;;16.09;73.26;99238.84;7247730;40;20274;31
2023/08/08 06:15:27;;;;;;;2.43;1.50;;;;;;;16.23;72.78;99243.28;7210903;40;20278;31
2023/08/08 06:26:06;;;;;;;3.90;2.00;;;;;;;16.46;71.83;99240.25;7232447;40;21228;31
2023/08/08 06:31:42;;;;;;;3.00;2.00;;;;;;;16.51;71.98;99248.66;7206033;40;20339;31
2023/08/08 06:37:02;;;;;;;2.93;1.80;;;;;;;16.73;71.42;99229.50;7226001;40;20285;31
2023/08/08 06:47:39;;;;;;;2.30;1.60;;;;;;;16.95;69.07;99234.56;7227374;40;21054;31
2023/08/08 06:53:11;;;;;;;2.87;1.90;;;;;;;17.06;69.04;99230.41;7218878;40;20277;31
2023/08/08 06:58:32;;;;;;;2.80;1.50;;;;;;;17.16;67.83;99236.28;7231830;40;20276;31
2023/08/08 07:04:01;;;;;;;2.05;1.40;;;;;;;17.29;66.99;99238.19;7235302;40;21210;31
2023/08/08 07:14:25;;;;;;;2.40;1.62;;;;;;;17.54;65.79;99228.34;7285910;39;20286;31
2023/08/08 07:19:58;;;;;;;2.40;1.55;;;;;;;17.75;65.00;99224.56;7272639;40;20286;31
2023/08/08 07:30:20;;;;;;;2.50;1.60;;;;;;;18.10;64.12;99241.50;7269247;40;21214;31
2023/08/08 07:35:55;;;;;;;2.55;1.40;;;;;;;18.12;61.71;99236.69;7274582;40;20249;31
2023/08/08 07:41:16;;;;;;;3.37;1.50;;;;;;;18.16;61.56;99230.56;7248874;40;20269;31
2023/08/08 07:46:51;;;;;;;3.83;1.50;;;;;;;18.17;61.15;99250.47;7294484;39;20702;31
2023/08/08 07:52:24;;;;;;;2.65;1.60;;;;;;;18.27;61.26;99237.25;7211738;40;20246;31
2023/08/08 07:57:56;;;;;;;2.80;1.40;;;;;;;18.35;60.25;99243.28;7225400;40;20378;31
2023/08/08 08:03:28;;;;;;;3.20;1.50;;;;;;;18.61;59.72;99247.00;7213375;40;20261;31
2023/08/08 08:09:04;;;;;;;2.85;1.50;;;;;;;18.52;60.30;99235.44;7194382;40;20292;31
2023/08/08 08:14:25;;;;;;;2.37;1.30;;;;;;;18.67;60.32;99233.31;7194592;40;20324;31
2023/08/08 08:20:00;;;;;;;4.40;1.80;;;;;;;18.94;60.01;99234.03;7213780;40;20344;31
2023/08/08 08:30:39;;;;;;;2.53;1.40;;;;;;;19.41;59.92;99229.91;7265935;40;20277;31
2023/08/08 08:41:18;;;;;;;3.57;1.70;;;;;;;19.52;58.86;99215.56;7251673;40;20569;31
2023/08/08 08:52:00;;;;;;;3.02;1.52;;;;;;;19.92;57.82;99204.22;7262948;40;20374;31
2023/08/08 08:57:34;;;;;;;3.45;1.50;;;;;;;20.04;55.30;99205.12;7214258;40;20270;31
2023/08/08 09:03:09;;;;;;;3.63;1.53;;;;;;;20.20;56.01;99204.53;7195874;40;20388;31
2023/08/08 09:08:46;;;;;;;4.43;1.67;;;;;;;20.22;54.54;99196.94;7131201;40;20283;31
2023/08/08 09:19:25;;;;;;;2.20;1.50;;;;;;;20.62;53.72;99200.84;7199828;40;20265;31
2023/08/08 09:25:01;;;;;;;2.27;1.50;;;;;;;20.82;53.92;99197.84;7199652;40;20238;31
2023/08/08 09:30:53;;;;;;;3.70;1.50;;;;;;;20.99;52.85;99187.06;7270989;40;20260;31
2023/08/08 09:36:28;;;;;;;2.85;1.45;;;;;;;20.72;51.52;99189.34;7252625;40;20802;31
2023/08/08 09:47:10;;;;;;;1.55;1.25;;;;;;;20.77;50.83;99188.66;7174212;40;20382;31
2023/08/08 09:57:49;;;;;;;2.20;1.50;;;;;;;21.37;47.96;99190.25;7201984;40;20326;31
2023/08/08 10:03:25;;;;;;;4.07;1.37;;;;;;;21.33;48.68;99199.19;7194521;40;20369;31
2023/08/08 10:14:04;;;;;;;3.30;1.43;;;;;;;21.79;48.24;99181.94;7335841;39;21179;31
2023/08/08 10:19:38;;;;;;;1.95;1.37;;;;;;;22.15;47.98;99167.97;7259443;40;20294;31
2023/08/08 10:25:13;;;;;;;2.20;1.30;;;;;;;22.35;46.81;99181.28;7206471;40;20274;31
2023/08/08 10:30:55;;;;;;;2.12;1.48;;;;;;;22.40;46.29;99165.75;7215083;40;20284;31
2023/08/08 10:36:29;;;;;;;2.20;1.40;;;;;;;22.44;47.00;99177.91;7174224;40;20280;31
2023/08/08 10:42:01;;;;;;;1.50;1.40;;;;;;;22.19;46.89;99179.31;7182461;40;20332;31
2023/08/08 10:47:33;;;;;;;3.00;1.50;;;;;;;21.97;45.02;99176.34;7173448;40;20428;31
2023/08/08 10:53:10;;;;;;;1.80;1.30;;;;;;;22.30;44.75;99171.03;7187447;40;20244;31
2023/08/08 10:58:50;;;;;;;3.12;1.45;;;;;;;22.45;44.87;99165.84;7186754;40;21353;31
2023/08/08 11:04:37;;;;;;;2.70;1.45;;;;;;;22.69;45.33;99161.13;7209509;40;20273;31
2023/08/08 11:10:30;;;;;;;2.15;1.50;;;;;;;22.47;43.97;99162.84;7212428;40;20246;31
2023/08/08 11:21:01;;;;;;;2.88;1.56;;;;;;;22.67;45.77;99156.94;7171031;40;20261;31
2023/08/08 11:31:38;;;;;;;2.96;1.50;;;;;;;22.82;43.91;99159.97;7262981;40;20368;31
2023/08/08 11:42:14;;;;;;;2.10;1.30;;;;;;;23.01;43.71;99161.44;7268302;39;21244;31
2023/08/08 11:47:50;;;;;;;2.33;1.40;;;;;;;23.36;43.94;99156.56;7275673;40;20366;31
2023/08/08 11:53:23;;;;;;;3.12;1.50;;;;;;;23.51;44.18;99157.91;7224212;40;20580;31
2023/08/08 11:58:40;;;;;;;4.12;1.65;;;;;;;23.61;42.22;99152.53;7230755;40;20307;31
2023/08/08 12:09:33;;;;;;;3.25;1.40;;;;;;;24.03;40.73;99139.13;7239018;40;21082;31
2023/08/08 12:15:09;;;;;;;1.58;1.00;;;;;;;24.05;39.84;99146.03;7174413;40;20275;31
2023/08/08 12:20:57;;;;;;;3.35;1.73;;;;;;;23.80;40.78;99145.69;7165509;40;21159;31
2023/08/08 12:31:34;;;;;;;2.95;1.30;;;;;;;23.66;41.62;99138.88;7140838;40;21225;31
2023/08/08 12:36:51;;;;;;;1.70;1.10;;;;;;;23.50;42.75;99134.22;7207361;40;20376;31
2023/08/08 12:42:23;;;;;;;3.25;1.30;;;;;;;23.73;41.89;99134.03;7242751;40;20318;31
2023/08/08 12:47:59;;;;;;;4.05;1.20;;;;;;;23.76;41.53;99137.09;7216375;40;20366;31
2023/08/08 12:53:19;;;;;;;2.87;1.50;;;;;;;23.85;41.48;99137.50;7166051;40;20506;31
2023/08/08 12:58:54;;;;;;;2.35;1.25;;;;;;;23.59;41.32;99135.47;7180108;40;20274;31
2023/08/08 13:04:30;;;;;;;1.85;1.30;;;;;;;23.39;42.69;99121.38;7156607;40;20258;31
2023/08/08 13:09:47;;;;;;;4.45;1.40;;;;;;;23.73;41.39;99129.38;7204890;40;20461;31
2023/08/08 13:15:20;;;;;;;2.05;1.27;;;;;;;23.74;41.48;99122.75;7241343;40;20264;31
2023/08/08 13:20:56;;;;;;;2.03;1.20;;;;;;;23.25;41.88;99113.47;7228409;40;20264;31
2023/08/08 13:26:31;;;;;;;3.37;1.30;;;;;;;23.45;42.70;99120.38;7228598;40;20247;31
2023/08/08 13:32:03;;;;;;;1.85;1.23;;;;;;;23.53;41.97;99108.94;7244559;40;20292;31
2023/08/08 13:42:40;;;;;;;1.85;1.25;;;;;;;23.68;41.68;99122.94;7240914;40;21256;31
2023/08/08 13:53:04;;;;;;;2.05;1.30;;;;;;;23.68;40.59;99103.69;7237282;39;21255;31
2023/08/08 13:58:38;;;;;;;2.55;1.33;;;;;;;23.91;41.29;99108.13;7277180;40;20253;31
2023/08/08 14:03:58;;;;;;;3.43;1.50;;;;;;;23.45;42.48;99099.22;7248328;40;20257;31
2023/08/08 14:09:33;;;;;;;3.92;1.37;;;;;;;23.43;42.31;99104.13;7278982;40;20260;31
2023/08/08 14:15:10;;;;;;;2.60;1.33;;;;;;;23.52;43.00;99097.09;7197564;40;20250;31
2023/08/08 14:20:44;;;;;;;3.33;1.20;;;;;;;23.63;42.85;99096.19;7208522;40;20478;31
2023/08/08 14:26:05;;;;;;;2.05;1.25;;;;;;;23.58;44.08;99098.03;7204438;40;20363;31
2023/08/08 14:31:40;;;;;;;2.60;1.45;;;;;;;23.28;42.70;99101.13;7195407;40;20329;31
2023/08/08 14:37:12;;;;;;;3.17;1.37;;;;;;;23.05;43.95;99093.87;7208991;40;20490;31
2023/08/08 14:42:30;;;;;;;2.72;1.50;;;;;;;22.86;45.09;99106.22;7214975;40;20371;31
2023/08/08 14:48:06;;;;;;;2.30;1.33;;;;;;;22.68;44.55;99104.47;7248676;40;20354;31
2023/08/08 14:53:26;;;;;;;2.65;1.25;;;;;;;22.61;45.77;99109.28;7277079;40;20241;31
2023/08/08 14:58:46;;;;;;;3.72;1.40;;;;;;;22.60;46.52;99107.59;7288656;40;20264;31
2023/08/08 15:04:21;;;;;;;1.83;1.33;;;;;;;22.73;45.95;99103.78;7264532;40;20345;31
2023/08/08 15:09:42;;;;;;;2.17;1.52;;;;;;;23.04;46.21;99097.69;7263066;40;20290;31
2023/08/08 15:15:03;;;;;;;3.28;1.40;;;;;;;23.17;44.70;99093.78;7286729;40;20253;31
2023/08/08 15:20:39;;;;;;;1.93;1.30;;;;;;;23.10;45.01;99099.47;7251372;40;20265;31
2023/08/08 15:26:15;;;;;;;4.17;1.83;;;;;;;23.22;45.91;99091.94;7195831;40;20262;31
2023/08/08 15:31:49;;;;;;;3.30;1.50;;;;;;;23.55;44.65;99093.87;7198246;40;20260;31
2023/08/08 15:37:25;;;;;;;2.40;1.40;;;;;;;23.60;45.43;99096.69;7219255;40;20267;31
2023/08/08 15:42:46;;;;;;;2.80;1.37;;;;;;;23.60;44.38;99102.22;7206531;40;20258;31
2023/08/08 15:48:20;;;;;;;2.55;1.50;;;;;;;23.75;44.71;99098.81;7250538;40;20356;31
2023/08/08 15:53:54;;;;;;;3.37;1.70;;;;;;;23.78;45.35;99103.84;7229289;40;20265;31
2023/08/08 16:04:16;;;;;;;2.60;1.70;;;;;;;23.60;44.78;99113.22;7225665;40;21091;31
2023/08/08 16:09:52;;;;;;;2.53;1.60;;;;;;;23.75;45.36;99109.81;7226809;40;20375;31
2023/08/08 16:15:12;;;;;;;3.10;1.50;;;;;;;23.80;46.66;99112.66;7180209;40;20335;31
2023/08/08 16:20:44;;;;;;;3.60;1.70;;;;;;;23.64;46.68;99108.03;7252347;40;20272;31
2023/08/08 16:26:20;;;;;;;2.30;1.60;;;;;;;23.47;46.43;99102.56;7216811;40;20400;31
2023/08/08 16:31:40;;;;;;;2.22;1.44;;;;;;;23.29;47.29;99100.88;7207610;40;20261;31
2023/08/08 16:37:00;;;;;;;2.40;1.40;;;;;;;23.22;47.15;99110.38;7248084;40;20279;31
2023/08/08 16:42:37;;;;;;;1.87;1.30;;;;;;;23.15;48.42;99109.72;7187620;40;20262;31
2023/08/08 16:48:12;;;;;;;4.47;1.58;;;;;;;22.99;48.61;99105.88;7169634;40;20255;31
2023/08/08 16:53:47;;;;;;;2.60;1.50;;;;;;;22.90;49.40;99110.94;7221640;40;20268;31
2023/08/08 16:59:23;;;;;;;3.15;1.67;;;;;;;22.78;49.17;99106.59;7179721;40;20263;31
2023/08/08 17:04:58;;;;;;;2.95;1.65;;;;;;;22.62;49.43;99112.88;7160262;40;20250;31
2023/08/08 17:10:33;;;;;;;4.93;1.70;;;;;;;22.47;49.55;99119.72;7169876;40;20314;31
2023/08/08 17:16:06;;;;;;;2.62;1.48;;;;;;;22.36;50.11;99111.53;7175150;40;20261;31
2023/08/08 17:21:26;;;;;;;3.37;1.77;;;;;;;22.42;50.17;99118.81;7214190;40;20415;31
2023/08/08 17:27:01;;;;;;;2.45;1.60;;;;;;;22.38;50.47;99114.88;7194736;40;20251;31
2023/08/08 17:32:34;;;;;;;2.70;1.80;;;;;;;22.31;50.88;99104.03;7147799;40;20290;31
2023/08/08 17:38:06;;;;;;;2.53;1.50;;;;;;;22.20;51.14;99102.19;7124125;40;20236;31
2023/08/08 17:43:38;;;;;;;3.08;1.60;;;;;;;22.19;51.34;99107.91;7195761;40;20359;31
2023/08/08 17:49:12;;;;;;;4.18;1.92;;;;;;;22.09;51.73;99097.56;7159335;40;20433;31
2023/08/08 17:54:47;;;;;;;3.33;1.63;;;;;;;21.99;52.18;99108.31;7175787;40;20266;31
2023/08/08 18:00:07;;;;;;;4.25;2.35;;;;;;;21.96;52.50;99095.91;6988742;40;20312;31
2023/08/08 18:05:42;;;;;;;2.03;1.55;;;;;;;21.83;52.77;99098.06;7222921;40;20271;31
2023/08/08 18:10:59;;;;;;;3.92;1.73;;;;;;;21.83;53.12;99111.78;7233347;40;20261;31
2023/08/08 18:16:19;;;;;;;2.25;1.50;;;;;;;21.77;53.13;99097.09;7243505;40;20331;31
2023/08/08 18:21:52;;;;;;;2.12;1.55;;;;;;;21.73;53.48;99090.44;7230167;40;20265;31
2023/08/08 18:27:23;;;;;;;5.28;1.70;;;;;;;21.68;54.14;99090.31;7220452;40;20391;31
2023/08/08 18:32:53;;;;;;;5.68;1.70;;;;;;;21.70;53.61;99090.09;7201147;40;20254;31
2023/08/08 18:38:26;;;;;;;4.25;1.70;;;;;;;21.64;53.98;99083.66;7220250;40;20265;31
2023/08/08 18:44:01;;;;;;;2.63;1.80;;;;;;;21.54;54.25;99075.22;7239117;40;20287;31
2023/08/08 18:49:33;;;;;;;4.10;1.60;;;;;;;21.48;54.68;99082.50;7253916;40;20345;31
2023/08/08 18:55:09;;;;;;;4.35;1.85;;;;;;;21.39;54.94;99077.59;7296345;39;20275;31
2023/08/08 19:00:41;;;;;;;4.70;1.65;;;;;;;21.31;54.73;99088.94;7257961;39;21256;31
2023/08/08 19:06:13;;;;;;;4.18;1.70;;;;;;;21.23;55.00;99100.25;7214820;40;20273;31
2023/08/08 19:11:46;;;;;;;4.43;1.67;;;;;;;21.20;55.77;99097.97;7182834;40;20278;31
2023/08/08 19:22:22;;;;;;;5.03;1.87;;;;;;;21.18;55.80;99108.34;7169516;40;20274;31
2023/08/08 19:32:57;;;;;;;3.62;1.85;;;;;;;21.03;55.30;99109.63;7229625;40;21261;31
2023/08/08 19:38:14;;;;;;;2.20;1.75;;;;;;;21.01;56.24;99099.97;7254186;40;21203;31
2023/08/08 19:43:46;;;;;;;2.83;1.60;;;;;;;20.95;55.50;99100.91;7263596;40;20252;31
2023/08/08 19:49:20;;;;;;;3.17;1.67;;;;;;;20.90;55.64;99101.59;7238087;40;20394;31
2023/08/08 19:54:37;;;;;;;3.40;1.70;;;;;;;20.95;56.69;99100.91;7219651;40;20277;31
2023/08/08 20:00:09;;;;;;;4.45;1.65;;;;;;;20.92;55.67;99101.37;7235432;40;20331;31
2023/08/08 20:05:42;;;;;;;3.30;1.67;;;;;;;20.87;57.22;99095.75;7188961;40;20265;31
2023/08/08 20:11:15;;;;;;;3.65;1.80;;;;;;;20.84;55.99;99086.13;7197102;40;20419;31
2023/08/08 20:16:31;;;;;;;3.58;1.85;;;;;;;20.79;56.32;99082.41;7193506;40;20276;31
2023/08/08 20:22:02;;;;;;;5.05;1.83;;;;;;;20.71;56.72;99077.28;7265585;40;20248;31
2023/08/08 20:27:34;;;;;;;4.33;1.70;;;;;;;20.63;56.37;99073.78;7278730;40;20257;31
2023/08/08 20:32:52;;;;;;;5.05;1.80;;;;;;;20.59;57.67;99075.34;7214377;40;20393;31
2023/08/08 20:38:24;;;;;;;3.63;1.87;;;;;;;20.52;57.10;99073.78;7224134;40;20258;31
2023/08/08 20:43:56;;;;;;;2.35;1.60;;;;;;;20.49;57.69;99077.78;7194908;40;20269;31
2023/08/08 20:49:28;;;;;;;3.87;1.70;;;;;;;20.45;58.06;99068.38;7220771;40;20257;31
2023/08/08 20:55:04;;;;;;;3.25;1.70;;;;;;;20.44;57.83;99071.37;7235203;40;20280;31
2023/08/08 21:00:36;;;;;;;3.08;1.85;;;;;;;20.48;57.43;99067.94;7203202;40;20250;31
2023/08/08 21:06:08;;;;;;;6.65;1.90;;;;;;;20.42;58.26;99068.84;7184385;40;20369;31
2023/08/08 21:11:44;;;;;;;5.70;1.75;;;;;;;20.39;56.82;99060.28;7245448;40;20265;31
2023/08/08 21:17:16;;;;;;;3.03;1.60;;;;;;;20.38;58.08;99064.91;7304873;39;20263;31
2023/08/08 21:22:34;;;;;;;3.80;1.80;;;;;;;20.39;57.57;99071.22;7263997;40;20238;31
2023/08/08 21:28:06;;;;;;;2.58;1.67;;;;;;;20.35;59.50;99065.38;7237962;40;20359;31
2023/08/08 21:33:27;;;;;;;3.70;1.87;;;;;;;20.25;60.09;99063.16;7230561;40;20276;31
2023/08/08 21:38:44;;;;;;;3.87;1.80;;;;;;;20.19;61.06;99055.03;7257756;40;20245;31
2023/08/08 21:44:14;;;;;;;4.33;1.93;;;;;;;20.17;60.80;99070.87;7255665;40;20268;31
2023/08/08 21:49:49;;;;;;;5.10;1.70;;;;;;;20.17;60.70;99046.25;7235172;40;20278;31
2023/08/08 21:55:09;;;;;;;4.33;1.90;;;;;;;20.04;59.96;99047.25;7166568;40;20255;31
2023/08/08 22:00:45;;;;;;;2.87;1.80;;;;;;;19.98;60.36;99033.66;7155417;40;20366;31
2023/08/08 22:06:06;;;;;;;3.85;1.60;;;;;;;19.98;60.42;99025.44;7115217;40;20262;31
2023/08/08 22:11:42;;;;;;;2.93;1.63;;;;;;;20.00;59.12;99023.31;7197091;40;20269;31
2023/08/08 22:17:15;;;;;;;7.12;1.90;;;;;;;19.95;59.27;99009.50;7200870;40;20266;31
2023/08/08 22:22:50;;;;;;;3.55;1.60;;;;;;;19.94;59.22;99018.78;7211432;40;20249;31
2023/08/08 22:28:23;;;;;;;1.97;1.57;;;;;;;19.86;60.68;99016.34;7230555;40;20284;31
2023/08/08 22:39:00;;;;;;;2.57;1.70;;;;;;;19.89;60.07;99032.28;7203042;40;20369;31
2023/08/08 22:49:24;;;;;;;3.20;1.60;;;;;;;19.80;61.66;99026.31;7269936;39;20282;31
2023/08/08 22:55:00;;;;;;;6.55;1.95;;;;;;;19.76;62.26;99006.78;7250461;40;20249;31
2023/08/08 23:00:35;;;;;;;3.20;2.00;;;;;;;19.77;60.96;99013.94;7226262;40;20242;31
2023/08/08 23:11:15;;;;;;;3.63;2.07;;;;;;;19.66;60.92;98998.28;7233888;40;20560;31
2023/08/08 23:21:54;;;;;;;3.55;1.70;;;;;;;19.58;60.97;98984.94;7269276;40;20376;31
2023/08/08 23:32:31;;;;;;;4.33;2.00;;;;;;;19.56;61.42;98965.22;7270030;39;20273;31
2023/08/08 23:38:06;;;;;;;2.75;1.77;;;;;;;19.57;62.08;98979.72;7229983;40;20265;31
2023/08/08 23:43:41;;;;;;;4.07;1.70;;;;;;;19.59;61.16;98975.69;7207624;40;20269;31
2023/08/08 23:49:15;;;;;;;2.07;1.60;;;;;;;19.57;62.60;98958.66;7242492;40;20281;31
2023/08/08 23:54:50;;;;;;;2.55;1.80;;;;;;;19.54;62.34;98953.66;7187290;40;20261;31
